Time;durP1;ratioP1;P1;durP2;ratioP2;P2;SDS_P1;SDS_P2;PMS_P1;PMS_P2;Temp;Humidity;BMP_temperature;BMP_pressure;BME280_temperature;BME280_humidity;BME280_pressure;Samples;Min_cycle;Max_cycle;Signal;HPM_P1;HPM_P2
2024/03/13 00:00:19;;;;;;;13.40;7.40;;;6.00;99.90;;;;;;4482850;27;656837;-72
2024/03/13 00:03:08;;;;;;;13.13;7.17;;;6.00;99.90;;;;;;4501519;27;657308;-73
2024/03/13 00:05:55;;;;;;;11.23;6.43;;;6.00;99.90;;;;;;4482537;27;657080;-73
2024/03/13 00:08:42;;;;;;;8.47;5.67;;;6.00;99.90;;;;;;4498063;27;656195;-73
2024/03/13 00:11:30;;;;;;;12.57;6.53;;;6.00;99.90;;;;;;4505954;27;655668;-73
2024/03/13 00:14:17;;;;;;;11.40;6.00;;;6.00;99.90;;;;;;4506208;27;655564;-72
2024/03/13 00:17:05;;;;;;;10.23;5.37;;;6.00;99.90;;;;;;4478475;27;657755;-72
2024/03/13 00:19:54;;;;;;;10.17;5.07;;;6.00;99.90;;;;;;4506338;27;655895;-73
2024/03/13 00:22:41;;;;;;;8.07;5.17;;;5.90;99.90;;;;;;4478372;27;657121;-73
2024/03/13 00:25:28;;;;;;;9.07;5.60;;;5.90;99.90;;;;;;4483889;27;656039;-73
2024/03/13 00:28:16;;;;;;;12.87;6.40;;;6.00;99.90;;;;;;4502948;27;655894;-73
2024/03/13 00:31:04;;;;;;;10.80;6.37;;;5.90;99.90;;;;;;4482669;27;656897;-72
2024/03/13 00:33:51;;;;;;;11.27;6.33;;;6.00;99.90;;;;;;4508826;27;656673;-72
2024/03/13 00:36:40;;;;;;;9.33;5.50;;;5.80;99.90;;;;;;4486217;27;656535;-73
2024/03/13 00:39:27;;;;;;;16.20;6.37;;;5.80;99.90;;;;;;4500258;27;655722;-72
2024/03/13 00:42:15;;;;;;;12.63;6.33;;;5.90;99.90;;;;;;4505300;27;657336;-71
2024/03/13 00:45:03;;;;;;;8.77;4.63;;;5.90;99.90;;;;;;4500481;27;656404;-73
2024/03/13 00:47:50;;;;;;;11.23;5.90;;;5.90;99.90;;;;;;4506658;27;656162;-72
2024/03/13 00:50:39;;;;;;;14.87;7.00;;;5.90;99.90;;;;;;4503707;27;656544;-73
2024/03/13 00:53:28;;;;;;;12.07;6.70;;;5.90;99.90;;;;;;4509417;27;656240;-72
2024/03/13 00:56:16;;;;;;;11.47;6.40;;;5.90;99.90;;;;;;4468036;27;656081;-72
2024/03/13 00:59:05;;;;;;;10.20;6.13;;;5.90;99.90;;;;;;4468905;27;657208;-73
2024/03/13 01:01:53;;;;;;;13.27;7.40;;;5.80;99.90;;;;;;4484828;27;656614;-73
2024/03/13 01:04:42;;;;;;;13.47;7.03;;;5.90;99.90;;;;;;4487373;27;657126;-72
2024/03/13 01:07:30;;;;;;;11.67;7.03;;;5.90;99.90;;;;;;4468616;27;657230;-73
2024/03/13 01:10:19;;;;;;;16.70;7.10;;;5.80;99.90;;;;;;4491847;27;655979;-72
2024/03/13 01:13:06;;;;;;;12.07;6.97;;;5.90;99.90;;;;;;4467826;27;656980;-73
2024/03/13 01:15:53;;;;;;;14.67;6.93;;;5.80;99.90;;;;;;4468540;27;656759;-73
2024/03/13 01:18:41;;;;;;;11.13;6.27;;;5.90;99.90;;;;;;4488615;27;656867;-73
2024/03/13 01:21:28;;;;;;;13.63;7.77;;;5.90;99.90;;;;;;4468172;27;656515;-73
2024/03/13 01:24:17;;;;;;;13.70;8.10;;;5.80;99.90;;;;;;4486464;27;657906;-73
2024/03/13 01:27:06;;;;;;;15.83;8.67;;;5.80;99.90;;;;;;4468256;27;657046;-72
2024/03/13 01:29:53;;;;;;;14.53;6.67;;;5.70;99.90;;;;;;4467952;27;657054;-73
2024/03/13 01:32:43;;;;;;;17.20;8.80;;;5.70;99.90;;;;;;4486564;27;658396;-73
2024/03/13 01:35:31;;;;;;;14.87;8.33;;;5.70;99.90;;;;;;4464245;27;656599;-73
2024/03/13 01:38:17;;;;;;;14.77;8.50;;;5.80;99.90;;;;;;4467726;27;657025;-73
2024/03/13 01:56:58;;;;;;;15.57;7.87;;;5.70;99.90;;;;;;4389362;28;656433;-73
2024/03/13 02:02:22;;;;;;;16.33;8.00;;;5.80;99.90;;;;;;4454079;27;657716;-72
2024/03/13 02:02:56;;;;;;;17.13;6.87;;;5.80;99.90;;;;;;4462957;27;656838;-73
2024/03/13 02:05:44;;;;;;;14.73;7.87;;;5.70;99.90;;;;;;4489666;27;656038;-73
2024/03/13 02:08:32;;;;;;;15.07;7.17;;;5.80;99.90;;;;;;4488982;27;656397;-73
2024/03/13 02:11:19;;;;;;;18.27;8.27;;;5.70;99.90;;;;;;4463073;27;657106;-73
2024/03/13 02:14:07;;;;;;;15.03;6.40;;;5.70;99.90;;;;;;4490017;27;656325;-73
2024/03/13 02:16:55;;;;;;;17.13;7.73;;;5.70;99.90;;;;;;4467751;27;657106;-73
2024/03/13 02:19:43;;;;;;;16.33;8.20;;;5.70;99.90;;;;;;4466975;27;656459;-73
2024/03/13 02:22:30;;;;;;;14.88;7.78;;;5.70;99.90;;;;;;4487759;27;656616;-72
2024/03/13 02:25:18;;;;;;;16.03;8.10;;;5.70;99.90;;;;;;4469390;27;657135;-73
2024/03/13 02:28:05;;;;;;;17.10;8.43;;;5.70;99.90;;;;;;4471398;27;657608;-73
2024/03/13 02:30:53;;;;;;;17.30;9.03;;;5.60;99.90;;;;;;4439397;27;656523;-73
2024/03/13 02:33:40;;;;;;;18.30;8.73;;;5.70;99.90;;;;;;4471133;27;657597;-73
2024/03/13 02:36:28;;;;;;;18.77;9.17;;;5.70;99.90;;;;;;4443500;27;656719;-73
2024/03/13 02:39:17;;;;;;;20.03;9.10;;;5.60;99.90;;;;;;4462022;27;657613;-72
2024/03/13 02:42:05;;;;;;;16.27;7.57;;;5.60;99.90;;;;;;4435552;27;658160;-73
2024/03/13 02:44:52;;;;;;;19.30;9.37;;;5.60;99.90;;;;;;4462557;27;656021;-73
2024/03/13 02:47:39;;;;;;;19.70;9.83;;;5.50;99.90;;;;;;4434404;27;657618;-72
2024/03/13 02:50:28;;;;;;;19.60;9.07;;;5.50;99.90;;;;;;4457669;27;656617;-72
2024/03/13 02:53:15;;;;;;;18.77;9.03;;;5.60;99.90;;;;;;4434946;27;657127;-73
2024/03/13 02:56:03;;;;;;;19.07;8.10;;;5.60;99.90;;;;;;4454748;27;656525;-73
2024/03/13 02:58:52;;;;;;;16.58;8.55;;;5.70;99.90;;;;;;4492653;27;656754;-72
2024/03/13 03:01:39;;;;;;;20.10;9.00;;;5.60;99.90;;;;;;4455726;27;657229;-72
2024/03/13 03:04:26;;;;;;;17.87;8.97;;;5.60;99.90;;;;;;4478626;27;656747;-73
2024/03/13 03:07:14;;;;;;;19.73;8.43;;;5.60;99.90;;;;;;4455444;27;656568;-72
2024/03/13 03:10:01;;;;;;;22.77;8.53;;;5.60;99.90;;;;;;4474492;27;657020;-72
2024/03/13 03:12:48;;;;;;;17.10;9.10;;;5.60;99.90;;;;;;4454186;27;657305;-72
2024/03/13 03:15:36;;;;;;;20.23;10.53;;;5.60;99.90;;;;;;4477314;27;657684;-72
2024/03/13 03:18:23;;;;;;;16.80;8.83;;;5.50;99.90;;;;;;4454849;27;657755;-73
2024/03/13 03:21:12;;;;;;;19.83;9.93;;;5.60;99.90;;;;;;4477861;27;657027;-73
2024/03/13 03:24:00;;;;;;;15.90;7.90;;;5.50;99.90;;;;;;4455954;27;657517;-72
2024/03/13 03:26:48;;;;;;;17.77;8.70;;;5.50;98.60;;;;;;4458300;27;656848;-72
2024/03/13 03:29:36;;;;;;;20.53;8.17;;;5.40;99.90;;;;;;4478565;27;657377;-73
2024/03/13 03:32:23;;;;;;;15.57;8.77;;;5.50;99.90;;;;;;4455199;27;656811;-72
2024/03/13 03:35:11;;;;;;;15.80;8.90;;;5.50;99.90;;;;;;4476888;27;657454;-72
2024/03/13 03:37:58;;;;;;;23.07;8.27;;;5.50;99.90;;;;;;4454288;27;657340;-73
2024/03/13 03:40:45;;;;;;;18.53;9.03;;;5.50;99.90;;;;;;4475417;27;656962;-73
2024/03/13 03:43:33;;;;;;;17.70;9.07;;;5.40;99.90;;;;;;4455191;27;657082;-73
2024/03/13 03:46:21;;;;;;;17.37;8.77;;;5.40;99.90;;;;;;4473982;27;656617;-73
2024/03/13 03:49:08;;;;;;;14.83;7.93;;;5.40;99.90;;;;;;4454655;27;656496;-73
2024/03/13 03:51:55;;;;;;;16.63;8.47;;;5.40;99.90;;;;;;4476149;27;656165;-73
2024/03/13 03:54:43;;;;;;;14.13;8.30;;;5.30;99.90;;;;;;4449499;27;656399;-73
2024/03/13 03:57:30;;;;;;;17.07;8.03;;;5.40;99.90;;;;;;4457182;27;657848;-73
2024/03/13 04:00:18;;;;;;;16.93;8.30;;;5.50;99.90;;;;;;4441419;27;657082;-73
2024/03/13 04:03:06;;;;;;;16.67;8.50;;;5.40;99.90;;;;;;4473998;27;657261;-73
2024/03/13 04:05:53;;;;;;;13.27;7.53;;;5.30;99.90;;;;;;4437527;27;656474;-73
2024/03/13 04:08:40;;;;;;;15.67;7.77;;;5.40;99.90;;;;;;4460444;27;657031;-74
2024/03/13 04:11:28;;;;;;;13.67;8.13;;;5.40;99.90;;;;;;4437743;28;656879;-73
2024/03/13 04:14:18;;;;;;;14.77;7.03;;;5.40;99.90;;;;;;4460560;27;656636;-72
2024/03/13 04:17:06;;;;;;;15.77;8.10;;;5.40;99.90;;;;;;4434175;27;657075;-73
2024/03/13 04:19:53;;;;;;;16.23;8.23;;;5.50;99.90;;;;;;4437803;28;656743;-73
2024/03/13 04:22:42;;;;;;;13.63;8.53;;;5.40;98.00;;;;;;4456922;28;656747;-73
2024/03/13 04:25:29;;;;;;;20.90;7.60;;;5.40;97.80;;;;;;4437098;28;656344;-73
2024/03/13 04:28:16;;;;;;;14.27;7.73;;;5.50;99.90;;;;;;4460684;28;656208;-73
2024/03/13 04:31:04;;;;;;;10.70;6.73;;;5.40;98.90;;;;;;4433158;28;656948;-74
2024/03/13 04:33:51;;;;;;;15.00;7.97;;;5.40;90.90;;;;;;4456780;28;656296;-73
2024/03/13 04:36:39;;;;;;;17.10;8.73;;;5.40;81.80;;;;;;4436386;28;656799;-73
2024/03/13 04:39:26;;;;;;;12.57;7.33;;;5.40;91.10;;;;;;4453849;28;656202;-72
2024/03/13 04:42:14;;;;;;;15.10;8.03;;;5.40;86.80;;;;;;4437464;28;657048;-73
2024/03/13 04:45:01;;;;;;;13.80;8.07;;;5.40;97.60;;;;;;4456853;28;657307;-73
2024/03/13 04:47:49;;;;;;;13.33;7.77;;;5.40;80.00;;;;;;4436834;28;656403;-73
2024/03/13 04:50:36;;;;;;;13.10;7.80;;;5.40;90.80;;;;;;4457025;28;657747;-73
2024/03/13 04:53:24;;;;;;;12.88;7.22;;;5.40;99.90;;;;;;4437031;28;656378;-72
2024/03/13 04:56:12;;;;;;;14.63;8.27;;;5.40;99.90;;;;;;4469893;28;657839;-72
2024/03/13 04:59:00;;;;;;;16.10;9.10;;;5.40;99.90;;;;;;4437228;28;657264;-73
2024/03/13 05:01:49;;;;;;;17.07;9.00;;;5.40;99.90;;;;;;4460339;28;656336;-72
2024/03/13 05:04:36;;;;;;;12.97;7.90;;;5.40;99.90;;;;;;4433470;28;656863;-73
2024/03/13 05:07:23;;;;;;;12.90;7.67;;;5.40;99.90;;;;;;4437057;28;657108;-73
2024/03/13 05:10:11;;;;;;;16.48;8.93;;;5.40;99.90;;;;;;4459754;28;657589;-73
2024/03/13 05:12:58;;;;;;;14.47;8.63;;;5.40;99.90;;;;;;4435385;28;656715;-73
2024/03/13 05:15:46;;;;;;;16.37;8.77;;;5.30;99.90;;;;;;4459225;28;657109;-73
2024/03/13 05:18:34;;;;;;;16.60;8.67;;;5.30;99.90;;;;;;4438801;27;656092;-73
2024/03/13 05:21:24;;;;;;;16.97;8.63;;;5.30;99.90;;;;;;4463525;27;656521;-72
2024/03/13 05:24:13;;;;;;;17.23;9.23;;;5.40;99.90;;;;;;4436091;27;657371;-72
2024/03/13 05:27:00;;;;;;;18.80;9.23;;;5.30;99.90;;;;;;4436692;27;657466;-72
2024/03/13 05:29:48;;;;;;;16.50;9.13;;;5.30;99.90;;;;;;4440179;27;656836;-73
2024/03/13 05:32:35;;;;;;;18.87;9.10;;;5.40;99.90;;;;;;4459737;27;656969;-73
2024/03/13 05:35:23;;;;;;;18.57;8.33;;;5.40;99.90;;;;;;4450926;27;656862;-73
2024/03/13 05:38:10;;;;;;;17.97;9.00;;;5.50;99.90;;;;;;4462521;27;657295;-73
2024/03/13 05:40:58;;;;;;;15.07;8.63;;;5.50;99.90;;;;;;4439497;27;657219;-73
2024/03/13 05:43:45;;;;;;;15.33;7.93;;;5.50;99.90;;;;;;4459171;27;656968;-72
2024/03/13 05:46:33;;;;;;;15.32;8.95;;;5.50;99.90;;;;;;4443397;27;656403;-73
2024/03/13 05:49:20;;;;;;;16.60;9.00;;;5.50;99.90;;;;;;4472693;27;656647;-72
2024/03/13 05:52:08;;;;;;;16.80;9.73;;;5.50;99.90;;;;;;4439302;27;656423;-73
2024/03/13 05:54:55;;;;;;;16.73;9.17;;;5.60;99.90;;;;;;4462460;27;658214;-73
2024/03/13 05:57:43;;;;;;;20.73;9.70;;;5.50;99.90;;;;;;4444064;27;656533;-72
2024/03/13 06:00:31;;;;;;;17.20;8.90;;;5.50;99.90;;;;;;4472270;27;657062;-73
2024/03/13 06:03:18;;;;;;;17.40;9.80;;;5.50;99.90;;;;;;4424547;28;657223;-73
2024/03/13 06:06:05;;;;;;;19.10;9.80;;;5.50;96.60;;;;;;4443641;28;657085;-73
2024/03/13 06:08:53;;;;;;;14.73;7.17;;;5.50;98.10;;;;;;4421076;28;656939;-73
2024/03/13 06:11:40;;;;;;;22.47;10.17;;;5.50;99.90;;;;;;4444106;28;657485;-73
2024/03/13 06:14:28;;;;;;;18.52;9.77;;;5.50;99.60;;;;;;4419838;28;657549;-73
2024/03/13 06:17:15;;;;;;;19.20;9.97;;;5.60;80.30;;;;;;4440953;28;656990;-73
2024/03/13 06:20:06;;;;;;;17.23;9.03;;;5.50;71.60;;;;;;4430374;28;656699;-72
2024/03/13 06:22:54;;;;;;;21.55;10.55;;;5.50;95.90;;;;;;4430814;28;656749;-73
2024/03/13 06:25:43;;;;;;;20.17;10.03;;;5.60;90.60;;;;;;4443004;28;657709;-73
2024/03/13 06:31:39;;;;;;;21.47;9.37;;;5.60;94.20;;;;;;4411414;28;656380;-74
2024/03/13 06:34:27;;;;;;;17.30;8.80;;;5.60;83.50;;;;;;4422051;28;656864;-73
2024/03/13 06:37:14;;;;;;;18.43;8.90;;;5.60;70.50;;;;;;4421277;28;656459;-73
2024/03/13 06:40:03;;;;;;;14.27;7.27;;;5.60;40.60;;;;;;4443670;28;656163;-73
2024/03/13 06:42:51;;;;;;;18.30;9.37;;;5.50;1.00;;;;;;4417637;28;657001;-72
2024/03/13 06:45:42;;;;;;;19.73;9.30;;;5.60;1.00;;;;;;4421093;28;655665;-72
2024/03/13 06:48:29;;;;;;;21.60;9.20;;;5.60;1.00;;;;;;4419150;28;656203;-73
2024/03/13 06:51:17;;;;;;;18.73;9.17;;;5.50;1.00;;;;;;4440643;28;655642;-73
2024/03/13 06:54:06;;;;;;;11.10;5.87;;;5.60;1.00;;;;;;4423595;27;655568;-72
2024/03/13 06:56:54;;;;;;;24.67;10.47;;;5.60;1.00;;;;;;4440063;27;656157;-73
2024/03/13 06:59:44;;;;;;;20.10;9.60;;;5.60;1.00;;;;;;4457600;27;656587;-72
2024/03/13 07:02:31;;;;;;;15.50;7.93;;;5.60;18.90;;;;;;4448575;27;655704;-73
2024/03/13 07:05:19;;;;;;;18.20;9.37;;;5.70;48.50;;;;;;4452131;27;657011;-72
2024/03/13 07:08:06;;;;;;;19.80;10.17;;;5.60;17.30;;;;;;4475079;27;656615;-72
2024/03/13 07:10:53;;;;;;;22.33;10.50;;;5.60;19.00;;;;;;4454768;27;657715;-72
2024/03/13 07:13:41;;;;;;;22.43;10.80;;;5.60;27.10;;;;;;4473787;27;658309;-73
2024/03/13 07:16:28;;;;;;;19.53;10.10;;;5.70;50.80;;;;;;4454444;27;658232;-73
2024/03/13 07:19:15;;;;;;;23.63;10.97;;;5.70;51.60;;;;;;4477469;27;658162;-73
2024/03/13 07:22:03;;;;;;;22.80;11.20;;;5.60;35.40;;;;;;4453332;27;657875;-73
2024/03/13 07:24:50;;;;;;;23.57;10.50;;;5.60;76.40;;;;;;4476834;27;658532;-72
2024/03/13 07:27:38;;;;;;;22.03;10.97;;;5.70;99.90;;;;;;4454085;27;657943;-73
2024/03/13 07:30:26;;;;;;;22.57;11.70;;;5.70;86.20;;;;;;4473884;27;658160;-72
2024/03/13 07:33:14;;;;;;;23.70;11.40;;;5.80;88.90;;;;;;4451335;27;657671;-72
2024/03/13 07:36:01;;;;;;;27.37;12.43;;;5.80;53.50;;;;;;4476834;27;657449;-72
2024/03/13 07:38:49;;;;;;;28.40;12.50;;;5.70;26.10;;;;;;4454430;27;658194;-72
2024/03/13 07:41:36;;;;;;;21.43;11.47;;;5.80;16.50;;;;;;4472670;27;658522;-72
2024/03/13 07:44:23;;;;;;;25.33;12.77;;;5.70;1.00;;;;;;4454218;27;657603;-72
2024/03/13 07:47:10;;;;;;;25.23;10.27;;;5.70;1.00;;;;;;4475323;27;656811;-72
2024/03/13 07:49:58;;;;;;;25.67;11.70;;;5.70;1.00;;;;;;4454917;27;656406;-72
2024/03/13 07:52:46;;;;;;;24.47;12.43;;;5.70;1.00;;;;;;4478381;27;657200;-72
2024/03/13 07:55:33;;;;;;;29.02;12.75;;;5.80;1.00;;;;;;4434468;28;656785;-73
2024/03/13 07:58:21;;;;;;;25.30;12.80;;;5.90;1.00;;;;;;4439445;28;656892;-73
2024/03/13 08:01:09;;;;;;;28.40;13.23;;;5.80;1.00;;;;;;4420387;28;656532;-73
2024/03/13 08:03:58;;;;;;;22.83;10.00;;;5.90;1.00;;;;;;4455487;27;656291;-72
2024/03/13 08:06:45;;;;;;;32.27;14.30;;;6.00;1.00;;;;;;4456836;27;657580;-73
2024/03/13 08:09:33;;;;;;;31.57;14.33;;;5.80;1.00;;;;;;4449111;27;656988;-73
2024/03/13 08:12:20;;;;;;;35.10;15.67;;;5.90;1.00;;;;;;4457028;27;656921;-72
2024/03/13 08:15:08;;;;;;;38.63;16.15;;;5.80;1.00;;;;;;4440509;27;656954;-73
2024/03/13 08:17:56;;;;;;;40.87;16.93;;;5.80;1.00;;;;;;4456787;28;657290;-72
2024/03/13 08:20:45;;;;;;;33.90;15.80;;;5.90;1.00;;;;;;4437690;28;656453;-73
2024/03/13 08:23:33;;;;;;;42.40;16.97;;;6.00;1.00;;;;;;4437994;28;657012;-73
2024/03/13 08:26:20;;;;;;;44.30;17.87;;;5.90;1.00;;;;;;4457405;28;657695;-72
2024/03/13 08:29:08;;;;;;;47.97;18.20;;;5.90;1.00;;;;;;4436995;28;656852;-73
2024/03/13 08:31:55;;;;;;;42.20;17.73;;;6.00;1.00;;;;;;4456128;28;656681;-72
2024/03/13 08:34:43;;;;;;;39.80;17.40;;;6.00;1.00;;;;;;4440720;28;656702;-73
2024/03/13 08:37:31;;;;;;;42.57;17.03;;;6.00;1.00;;;;;;4456681;28;656563;-72
2024/03/13 08:40:18;;;;;;;44.67;17.50;;;6.00;1.00;;;;;;4436846;28;656271;-72
2024/03/13 08:43:05;;;;;;;50.90;18.97;;;6.00;1.00;;;;;;4458371;28;657299;-72
2024/03/13 08:45:53;;;;;;;47.40;19.37;;;6.10;1.00;;;;;;4436682;28;656289;-73
2024/03/13 08:48:40;;;;;;;50.63;18.70;;;6.00;1.00;;;;;;4455997;28;656774;-73
2024/03/13 08:51:29;;;;;;;48.67;20.02;;;5.90;1.00;;;;;;4441194;28;656923;-73
2024/03/13 08:54:16;;;;;;;52.40;18.87;;;6.00;1.00;;;;;;4460645;27;656666;-73
2024/03/13 08:57:04;;;;;;;55.80;20.73;;;6.00;1.00;;;;;;4455020;27;657419;-73
2024/03/13 08:59:51;;;;;;;43.80;18.13;;;6.00;1.00;;;;;;4480534;27;656547;-73
2024/03/13 09:02:39;;;;;;;53.05;20.33;;;5.90;1.00;;;;;;4448456;27;656912;-73
2024/03/13 09:05:28;;;;;;;48.03;19.37;;;5.80;1.00;;;;;;4459596;27;657561;-72
2024/03/13 09:08:18;;;;;;;47.40;19.87;;;5.90;1.00;;;;;;4436530;27;656880;-73
2024/03/13 09:11:05;;;;;;;44.30;17.57;;;6.00;1.00;;;;;;4436794;27;657320;-73
2024/03/13 09:13:53;;;;;;;50.63;19.20;;;5.80;1.00;;;;;;4444958;27;656675;-73
2024/03/13 09:16:40;;;;;;;51.17;18.30;;;5.80;1.00;;;;;;4462958;27;657485;-73
2024/03/13 09:19:28;;;;;;;55.03;21.60;;;5.90;1.00;;;;;;4439421;27;657016;-73
2024/03/13 09:22:17;;;;;;;30.37;11.00;;;5.90;1.00;;;;;;4459177;27;657410;-72
2024/03/13 09:25:05;;;;;;;62.73;23.90;;;6.00;1.00;;;;;;4440854;27;657223;-72
2024/03/13 09:27:53;;;;;;;49.63;14.63;;;5.80;1.00;;;;;;4450078;27;656842;-73
2024/03/13 09:30:40;;;;;;;62.70;24.90;;;5.90;1.00;;;;;;4458477;27;657269;-73
2024/03/13 09:33:28;;;;;;;66.03;24.83;;;5.90;1.00;;;;;;4451829;27;657542;-73
2024/03/13 09:36:16;;;;;;;62.03;24.77;;;6.00;1.00;;;;;;4462234;27;656489;-72
2024/03/13 09:39:04;;;;;;;66.07;24.33;;;6.00;1.00;;;;;;4439502;27;656384;-73
2024/03/13 09:41:53;;;;;;;69.30;24.13;;;6.00;1.00;;;;;;4458603;27;656229;-72
2024/03/13 09:44:40;;;;;;;71.97;24.67;;;6.00;1.00;;;;;;4434358;27;657275;-73
2024/03/13 09:47:28;;;;;;;67.70;24.20;;;6.10;1.00;;;;;;4446783;27;657092;-72
2024/03/13 09:50:15;;;;;;;66.70;23.00;;;6.00;1.00;;;;;;4459029;27;656995;-72
2024/03/13 09:53:03;;;;;;;63.30;22.63;;;6.00;1.00;;;;;;4439757;27;656582;-72
2024/03/13 09:55:50;;;;;;;62.20;21.73;;;6.00;1.00;;;;;;4454697;28;657140;-72
2024/03/13 09:58:40;;;;;;;55.10;20.07;;;5.90;1.00;;;;;;4429394;28;656689;-73
2024/03/13 10:01:28;;;;;;;62.93;22.03;;;6.00;1.00;;;;;;4438176;28;656337;-72
2024/03/13 10:04:21;;;;;;;66.97;21.00;;;6.00;1.00;;;;;;4456957;28;657734;-72
2024/03/13 10:07:08;;;;;;;62.27;21.83;;;6.00;1.00;;;;;;4441529;27;656554;-72
2024/03/13 10:09:55;;;;;;;59.10;20.73;;;5.90;1.00;;;;;;4458743;27;657028;-72
2024/03/13 10:12:43;;;;;;;67.77;20.90;;;6.00;1.00;;;;;;4439226;27;656663;-72
2024/03/13 10:15:30;;;;;;;62.33;22.47;;;6.00;1.00;;;;;;4462252;27;657100;-72
2024/03/13 10:18:18;;;;;;;63.72;21.05;;;5.90;1.00;;;;;;4439139;27;657581;-72
2024/03/13 10:21:06;;;;;;;70.37;24.30;;;5.90;1.00;;;;;;4462290;27;656003;-72
2024/03/13 10:23:54;;;;;;;80.77;25.03;;;5.90;1.00;;;;;;4439317;27;656654;-71
2024/03/13 10:26:41;;;;;;;79.00;24.10;;;5.90;61.60;;;;;;4458378;27;657313;-72
2024/03/13 10:29:28;;;;;;;75.27;23.17;;;5.80;74.00;;;;;;4437878;27;658328;-72
2024/03/13 10:32:17;;;;;;;78.87;24.23;;;5.80;99.90;;;;;;4456701;27;658018;-72
2024/03/13 10:35:05;;;;;;;82.33;26.80;;;5.90;99.90;;;;;;4438366;27;657827;-72
2024/03/13 10:37:53;;;;;;;78.57;26.57;;;5.90;99.90;;;;;;4437509;27;657777;-72
2024/03/13 10:40:41;;;;;;;80.33;27.97;;;5.90;79.30;;;;;;4456714;27;658703;-72
2024/03/13 10:43:31;;;;;;;73.83;23.17;;;5.90;91.90;;;;;;4437113;27;657876;-72
2024/03/13 10:46:18;;;;;;;76.23;24.50;;;6.00;99.90;;;;;;4437839;27;658827;-72
2024/03/13 10:49:06;;;;;;;75.20;26.10;;;5.90;41.30;;;;;;4457542;27;658878;-72
2024/03/13 10:51:56;;;;;;;76.70;25.57;;;5.90;73.70;;;;;;4437009;27;658249;-72
2024/03/13 10:54:44;;;;;;;84.30;27.47;;;5.80;63.20;;;;;;4439992;27;658371;-72
2024/03/13 10:57:31;;;;;;;97.40;28.40;;;5.90;99.90;;;;;;4477748;27;657441;-72
2024/03/13 11:00:21;;;;;;;85.80;26.90;;;5.90;90.60;;;;;;4454659;27;657788;-72
2024/03/13 11:03:10;;;;;;;92.27;28.30;;;5.80;99.90;;;;;;4455233;27;658194;-72
2024/03/13 11:06:00;;;;;;;81.13;27.73;;;5.90;99.90;;;;;;4455332;27;657385;-73
2024/03/13 11:08:47;;;;;;;55.93;19.10;;;6.10;99.90;;;;;;4468615;27;657568;-72
2024/03/13 11:11:35;;;;;;;93.17;29.53;;;6.00;37.80;;;;;;4473341;27;658813;-72
2024/03/13 11:14:23;;;;;;;78.23;27.70;;;5.90;1.00;;;;;;4467968;27;658179;-72
2024/03/13 11:17:10;;;;;;;70.93;24.80;;;6.00;39.40;;;;;;4479052;27;656678;-72
2024/03/13 11:19:58;;;;;;;71.13;24.33;;;6.20;61.40;;;;;;4456258;27;658275;-72
2024/03/13 11:22:45;;;;;;;82.77;27.93;;;6.20;1.00;;;;;;4473509;27;657896;-72
2024/03/13 11:25:33;;;;;;;86.35;27.77;;;6.20;1.00;;;;;;4455348;27;657215;-73
2024/03/13 11:28:20;;;;;;;67.30;22.93;;;6.40;1.00;;;;;;4475125;27;657006;-72
2024/03/13 11:31:09;;;;;;;69.83;24.33;;;6.30;99.90;;;;;;4456538;27;656472;-73
2024/03/13 11:33:57;;;;;;;75.00;25.90;;;6.40;99.90;;;;;;4473942;27;657354;-72
2024/03/13 11:36:45;;;;;;;66.77;25.43;;;6.50;99.90;;;;;;4451603;27;658157;-72
2024/03/13 11:39:33;;;;;;;67.55;25.67;;;6.50;99.90;;;;;;4458088;27;658052;-73
2024/03/13 11:42:21;;;;;;;67.33;26.93;;;6.60;1.00;;;;;;4473243;27;658620;-72
2024/03/13 11:45:16;;;;;;;73.80;26.30;;;6.40;1.00;;;;;;4455646;27;656777;-72
2024/03/13 11:48:04;;;;;;;64.28;24.08;;;6.60;99.90;;;;;;4450296;27;656555;-72
2024/03/13 11:51:07;;;;;;;68.53;25.23;;;6.70;1.00;;;;;;4473594;27;658289;-72
2024/03/13 11:53:55;;;;;;;71.17;27.17;;;6.90;1.00;;;;;;4454858;27;656195;-73
2024/03/13 11:56:43;;;;;;;63.83;23.80;;;7.00;53.70;;;;;;4468720;27;656662;-72
2024/03/13 11:59:41;;;;;;;61.57;22.87;;;7.20;1.00;;;;;;4473687;27;658028;-72
2024/03/13 12:02:40;;;;;;;45.67;17.77;;;7.20;1.00;;;;;;4427643;27;656699;-72
2024/03/13 12:05:34;;;;;;;60.63;21.63;;;7.10;99.90;;;;;;4468682;27;656863;-72
2024/03/13 12:08:22;;;;;;;57.47;23.13;;;7.00;99.90;;;;;;4450633;27;658090;-72
2024/03/13 12:11:17;;;;;;;59.63;25.20;;;7.00;99.90;;;;;;4454856;27;658303;-72
2024/03/13 12:14:05;;;;;;;64.27;26.07;;;6.90;99.90;;;;;;4453682;27;658021;-72
2024/03/13 12:16:53;;;;;;;56.83;24.57;;;7.10;99.90;;;;;;4468220;27;657967;-72
2024/03/13 12:19:40;;;;;;;55.47;22.90;;;7.20;99.90;;;;;;4473466;27;658819;-73
2024/03/13 12:22:27;;;;;;;51.80;21.73;;;7.20;99.90;;;;;;4464311;27;657631;-73
2024/03/13 12:25:15;;;;;;;49.97;21.63;;;7.20;1.00;;;;;;4476072;27;658935;-72
2024/03/13 12:28:03;;;;;;;47.83;20.77;;;7.30;1.00;;;;;;4453811;27;656621;-72
2024/03/13 12:30:50;;;;;;;45.67;20.10;;;7.20;99.90;;;;;;4474130;27;657694;-72
2024/03/13 12:33:37;;;;;;;49.03;19.83;;;7.20;99.90;;;;;;4462738;27;658356;-72
2024/03/13 12:36:28;;;;;;;43.27;19.70;;;7.30;99.90;;;;;;4473330;27;658367;-72
2024/03/13 12:39:17;;;;;;;53.60;22.60;;;7.30;84.30;;;;;;4449922;27;658104;-72
2024/03/13 12:42:06;;;;;;;55.93;23.30;;;7.30;99.90;;;;;;4449986;27;658268;-72
2024/03/13 12:44:53;;;;;;;53.73;23.00;;;7.30;1.00;;;;;;4453096;27;657651;-72
2024/03/13 12:47:41;;;;;;;52.57;23.63;;;7.50;1.00;;;;;;4473881;27;657807;-72
2024/03/13 12:50:29;;;;;;;56.77;23.00;;;7.80;1.00;;;;;;4453465;27;656445;-72
2024/03/13 12:53:16;;;;;;;50.37;22.47;;;8.00;99.90;;;;;;4473480;27;656365;-72
2024/03/13 12:56:05;;;;;;;60.57;27.50;;;8.30;1.00;;;;;;4433672;28;658018;-73
2024/03/13 12:58:53;;;;;;;48.07;21.17;;;8.50;99.90;;;;;;4449429;28;656603;-72
2024/03/13 13:01:41;;;;;;;49.53;21.63;;;8.50;66.50;;;;;;4455131;28;659027;-72
2024/03/13 13:04:29;;;;;;;43.20;21.10;;;8.50;99.90;;;;;;4431267;28;657808;-72
2024/03/13 13:07:16;;;;;;;44.47;19.30;;;8.20;1.00;;;;;;4455276;28;657317;-72
2024/03/13 13:10:04;;;;;;;45.37;19.93;;;8.20;1.00;;;;;;4436861;28;657043;-72
2024/03/13 13:12:51;;;;;;;49.67;22.47;;;8.20;99.90;;;;;;4455961;28;656820;-72
2024/03/13 13:15:40;;;;;;;47.87;19.87;;;8.40;99.90;;;;;;4435171;28;657425;-72
2024/03/13 13:18:30;;;;;;;44.10;19.90;;;8.70;1.00;;;;;;4440357;28;657941;-72
2024/03/13 13:21:18;;;;;;;47.20;19.77;;;8.60;99.90;;;;;;4440156;28;656796;-72
2024/03/13 13:24:05;;;;;;;49.50;20.80;;;8.60;1.00;;;;;;4454527;28;658328;-72
2024/03/13 13:26:53;;;;;;;52.00;22.00;;;8.70;99.90;;;;;;4436949;28;657100;-72
2024/03/13 13:29:41;;;;;;;47.67;20.90;;;9.10;1.00;;;;;;4454745;28;657936;-72
2024/03/13 13:32:29;;;;;;;42.33;18.85;;;9.40;99.90;;;;;;4432043;28;656659;-72
2024/03/13 13:35:16;;;;;;;37.43;18.23;;;9.20;1.00;;;;;;4458519;28;657606;-72
2024/03/13 13:38:03;;;;;;;42.97;19.10;;;9.20;1.00;;;;;;4434968;28;656422;-72
2024/03/13 13:40:51;;;;;;;36.57;18.00;;;9.20;1.00;;;;;;4458586;27;656766;-72
2024/03/13 13:43:38;;;;;;;39.20;19.40;;;9.00;99.90;;;;;;4439673;27;657038;-72
2024/03/13 13:46:25;;;;;;;42.13;19.47;;;9.00;1.00;;;;;;4457370;27;658083;-72
2024/03/13 13:49:13;;;;;;;38.07;17.63;;;9.20;99.90;;;;;;4439379;27;656705;-72
2024/03/13 13:52:01;;;;;;;35.30;17.83;;;8.90;72.80;;;;;;4457621;27;657559;-72
2024/03/13 13:54:48;;;;;;;35.37;16.10;;;8.80;1.00;;;;;;4440990;27;657465;-72
2024/03/13 13:57:36;;;;;;;39.03;19.17;;;8.90;99.90;;;;;;4458741;27;656906;-72
2024/03/13 14:00:24;;;;;;;42.30;18.47;;;8.80;52.90;;;;;;4434814;27;658175;-72
2024/03/13 14:03:12;;;;;;;40.30;18.43;;;8.60;99.90;;;;;;4457304;27;657757;-72
2024/03/13 14:06:00;;;;;;;41.40;17.97;;;8.80;1.00;;;;;;4433464;27;657986;-72
2024/03/13 14:08:48;;;;;;;33.70;15.57;;;8.70;93.30;;;;;;4439682;27;656406;-72
2024/03/13 14:11:35;;;;;;;38.03;18.77;;;8.70;1.00;;;;;;4457507;27;658521;-72
2024/03/13 14:14:22;;;;;;;68.60;24.63;;;8.70;1.00;;;;;;4443475;27;656441;-72
2024/03/13 14:17:10;;;;;;;70.23;24.80;;;8.80;99.90;;;;;;4457305;27;658017;-72
2024/03/13 14:19:58;;;;;;;36.37;18.10;;;8.90;1.00;;;;;;4438049;27;658248;-72
2024/03/13 14:22:48;;;;;;;37.80;19.20;;;8.80;1.00;;;;;;4461358;27;657533;-72
2024/03/13 14:25:36;;;;;;;30.47;16.03;;;8.80;99.90;;;;;;4436154;27;656555;-72
2024/03/13 14:28:23;;;;;;;34.27;17.97;;;8.80;1.00;;;;;;4438169;27;658310;-72
2024/03/13 14:31:10;;;;;;;35.53;17.73;;;9.00;99.90;;;;;;4462525;27;657078;-72
2024/03/13 14:33:59;;;;;;;31.65;16.77;;;9.30;1.00;;;;;;4437343;27;658237;-72
2024/03/13 14:36:46;;;;;;;35.87;17.23;;;9.10;99.90;;;;;;4458809;27;656824;-73
2024/03/13 14:39:35;;;;;;;29.77;16.17;;;9.60;99.90;;;;;;4437877;27;658245;-73